Impacts METAR Board INFO
IDs:

KPHX - Phoenix/Sky Harbor, AZ, US

Updated at: 2145 UTC 24 Feb 2018
Potential Impact None Slight Moderate High
Time24/09Z 24/10Z 24/11Z 24/12Z 24/13Z 24/14Z 24/15Z 24/16Z 24/17Z 24/18Z 24/19Z 24/20Z 24/21Z
VIS10 10 10 10 10 10 10 10 10 10 10 10 10
CIG-- -- -- -- -- -- -- -- -- -- -- -- --
CoverCLRCLRCLRCLRCLRCLRCLRCLRCLRFEWFEWCLRCLR
FltCatVFRVFRVFRVFRVFRVFRVFRVFRVFRVFRVFRVFRVFR
WX--------------------------
WDir27028027002402402302302200280240270
WSpd8 8 6 0 5 5 5 5 3 3 3 8 8
WGst-- -- -- -- -- -- -- -- -- -- -- -- --
Raw hourly METARs
KPHX 240851Z 27008KT 10SM CLR 07/M04 A3016 RMK AO2 SLP208 T00721039 51012
KPHX 240951Z 28008KT 10SM CLR 07/M03 A3017 RMK AO2 SLP211 T00671033
KPHX 241051Z 27006KT 10SM CLR 06/M03 A3017 RMK AO2 SLP213 T00561033
KPHX 241151Z 00000KT 10SM CLR 05/M03 A3018 RMK AO2 SLP217 T00501028 10100 20050 53006
KPHX 241251Z 24005KT 10SM CLR 04/M03 A3020 RMK AO2 SLP224 T00441033
KPHX 241351Z 24005KT 10SM CLR 04/M03 A3022 RMK AO2 SLP230 T00391033 $
KPHX 241451Z 23005KT 10SM CLR 05/M03 A3024 RMK AO2 SLP238 T00501033 52020 $
KPHX 241551Z 23005KT 10SM CLR 07/M03 A3027 RMK AO2 SLP247 T00721033 $
KPHX 241651Z 22003KT 10SM CLR 09/M04 A3027 RMK AO2 SLP246 T00891039 $
KPHX 241751Z VRB03KT 10SM FEW055 10/M04 A3027 RMK AO2 SLP246 T01001044 10106 20039 50008 $
KPHX 241851Z 28003KT 10SM FEW055 11/M06 A3025 RMK AO2 SLP239 T01111056 $
KPHX 241951Z 24008KT 230V290 10SM CLR 13/M07 A3022 RMK AO2 SLP228 T01331072 $
KPHX 242051Z 27008KT 10SM CLR 14/M07 A3018 RMK AO2 SLP217 T01391072 58028 $